(°C)
24°
23°
22°
21°
20°
19°
19°
(°C)
22°
21°
20°
19°
18°
18°
17°
B
KKB
KD
KD
KD
KD
KD
(km/saat)
8-19
4-14
5-11
6-14
8-16
7-16
9-17
(mm)
0
0
0
0
0
0
0
(%)
0
0
0
0
0
0
0

Güneşin açısı

/ -7.5°
sun-icon
UV 6
06:42
20:41
Hilal (158°)
20:00
04:08

Yanya (LGIO) için METAR

Zaman Koşullar Sıcaklık/
Çiy noktası
Rüzgar Görünürlük Hava Bulutlar Basınç Değiştir Ham
VFR 25°C / 13°C 300º 2kt >10km - Few Clouds 5000ft 1014 - LGIO 101750Z 30002KT 9999 FEW050 25/13 Q1014
VFR 26°C / 14°C 320º 1kt >10km - Few Clouds 5000ft 1014 - LGIO 101720Z 32001KT 9999 FEW050 26/14 Q1014
VFR 28°C / 12°C 290º variable 250º to 310º 5kt >10km - Few Clouds 5000ft 1014 - LGIO 101650Z 29005KT 250V310 9999 FEW050 28/12 Q1014
VFR 29°C / 11°C 320º variable 270º to 340º 6kt >10km - Broken Clouds 5000ft 1014 - LGIO 101620Z 32006KT 270V340 9999 BKN050 29/11 Q1014
VFR 29°C / 12°C 310º 6kt >10km - Broken Clouds 5000ft 1014 - LGIO 101550Z 31006KT 9999 BKN050 29/12 Q1014
VFR 29°C / 12°C 300º variable 270º to 340º 10kt >10km - Few Clouds 4500ft
Broken Clouds 5000ft
1014 - LGIO 101520Z 30010KT 270V340 9999 FEW045TCU BKN050 29/12 Q1014
VFR 31°C / 11°C 310º variable 240º to 320º 7kt >10km - Few Clouds 4500ft
Broken Clouds 5000ft
1014 - LGIO 101450Z 31007KT 240V320 9999 FEW045TCU BKN050 31/11 Q1014
30°C / 10°C 310º variable 270º to 330º 5kt - 1014 - LGIO 101420Z AUTO 31005KT 270V330 //// // ////// 30/10 Q1014 RE//
29°C / 10°C 320º variable 280º to 340º 9kt - 1014 - LGIO 101350Z AUTO 32009KT 280V340 //// // ////// 29/10 Q1014 RE//
30°C / 11°C 330º 11kt - 1014 - LGIO 101320Z AUTO 33011KT //// // ////// 30/11 Q1014 RE//
32°C / 11°C 250º variable 200º to 350º 4kt - 1014 - LGIO 101250Z AUTO 25004KT 200V350 //// // ////// 32/11 Q1014 RE//
28°C / 13°C variable 2kt - 1015 - LGIO 101220Z AUTO VRB02KT //// // ////// 28/13 Q1015 RE//
VFR 26°C / 16°C 320º 2kt >10km - Broken Clouds 4500ft 1015 - LGIO 101150Z 32002KT 9999 BKN045 26/16 Q1015
VFR 28°C / 13°C 330º variable 290º to 010º 5kt >10km Light Rain 1.00mm precipitation Vertical Visibility of 0ft. 1015 - LGIO 101120Z 33005KT 290V010 9999 -RA BKN045 28/13 Q1015
VFR 29°C / 11°C 310º 6kt >10km - Broken Clouds 4500ft 1015 - LGIO 101050Z 31006KT 9999 BKN045 29/11 Q1015
VFR 29°C / 11°C 10º 3kt >10km - Scattered Clouds 4500ft 1015 - LGIO 101020Z 01003KT 9999 SCT045 29/11 Q1015
VFR 33°C / 11°C 80º variable 080º to 170º 4kt >10km - Scattered Clouds 4500ft 1015 - LGIO 100950Z 08004KT 080V170 9999 SCT045 33/11 Q1015
VFR 32°C / 11°C 210º 3kt >10km - Few Clouds 5000ft 1015 - LGIO 100920Z 21003KT 9999 FEW050 32/11 Q1015
VFR 29°C / 13°C 280º 3kt >10km - Few Clouds 5000ft 1015 - LGIO 100850Z 28003KT 9999 FEW050 29/13 Q1015
VFR 28°C / 14°C 40º variable 270º to 040º 5kt >10km - Few Clouds 5000ft 1016 - LGIO 100820Z 04005KT 270V040 9999 FEW050 28/14 Q1016
VFR 27°C / 13°C 20º variable 340º to 050º 4kt >10km - Few Clouds 5000ft 1016 - LGIO 100750Z 02004KT 340V050 9999 FEW050 27/13 Q1016
VFR 26°C / 12°C 300º 3kt >10km - Few Clouds 4500ft 1016 - LGIO 100720Z 30003KT 9999 FEW045 26/12 Q1016
VFR 23°C / 13°C 10º 2kt >10km - Scattered Clouds 4500ft 1016 - LGIO 100650Z 01002KT 9999 SCT045 23/13 Q1016
VFR 20°C / 13°C 340º 2kt >10km - Broken Clouds 4500ft 1016 - LGIO 100620Z 34002KT 9999 BKN045 20/13 Q1016

VFR

25°C / 13°C

[Daha fazla]
Rüzgar 300º 2kt
Görünürlük >10km
Hava -
Bulutlar Few Clouds 5000ft
Basınç 1014
Değiştir -
Ham LGIO 101750Z 30002KT 9999 FEW050 25/13 Q1014

VFR

26°C / 14°C

[Daha fazla]
Rüzgar 320º 1kt
Görünürlük >10km
Hava -
Bulutlar Few Clouds 5000ft
Basınç 1014
Değiştir -
Ham LGIO 101720Z 32001KT 9999 FEW050 26/14 Q1014

VFR

28°C / 12°C

[Daha fazla]
Rüzgar 290º variable 250º to 310º 5kt
Görünürlük >10km
Hava -
Bulutlar Few Clouds 5000ft
Basınç 1014
Değiştir -
Ham LGIO 101650Z 29005KT 250V310 9999 FEW050 28/12 Q1014

VFR

29°C / 11°C

[Daha fazla]
Rüzgar 320º variable 270º to 340º 6kt
Görünürlük >10km
Hava -
Bulutlar Broken Clouds 5000ft
Basınç 1014
Değiştir -
Ham LGIO 101620Z 32006KT 270V340 9999 BKN050 29/11 Q1014

VFR

29°C / 12°C

[Daha fazla]
Rüzgar 310º 6kt
Görünürlük >10km
Hava -
Bulutlar Broken Clouds 5000ft
Basınç 1014
Değiştir -
Ham LGIO 101550Z 31006KT 9999 BKN050 29/12 Q1014

VFR

29°C / 12°C

[Daha fazla]
Rüzgar 300º variable 270º to 340º 10kt
Görünürlük >10km
Hava -
Bulutlar Few Clouds 4500ft
Broken Clouds 5000ft
Basınç 1014
Değiştir -
Ham LGIO 101520Z 30010KT 270V340 9999 FEW045TCU BKN050 29/12 Q1014

VFR

31°C / 11°C

[Daha fazla]
Rüzgar 310º variable 240º to 320º 7kt
Görünürlük >10km
Hava -
Bulutlar Few Clouds 4500ft
Broken Clouds 5000ft
Basınç 1014
Değiştir -
Ham LGIO 101450Z 31007KT 240V320 9999 FEW045TCU BKN050 31/11 Q1014

30°C / 10°C

[Daha fazla]
Rüzgar 310º variable 270º to 330º 5kt
Görünürlük
Hava -
Bulutlar
Basınç 1014
Değiştir -
Ham LGIO 101420Z AUTO 31005KT 270V330 //// // ////// 30/10 Q1014 RE//

29°C / 10°C

[Daha fazla]
Rüzgar 320º variable 280º to 340º 9kt
Görünürlük
Hava -
Bulutlar
Basınç 1014
Değiştir -
Ham LGIO 101350Z AUTO 32009KT 280V340 //// // ////// 29/10 Q1014 RE//

30°C / 11°C

[Daha fazla]
Rüzgar 330º 11kt
Görünürlük
Hava -
Bulutlar
Basınç 1014
Değiştir -
Ham LGIO 101320Z AUTO 33011KT //// // ////// 30/11 Q1014 RE//

32°C / 11°C

[Daha fazla]
Rüzgar 250º variable 200º to 350º 4kt
Görünürlük
Hava -
Bulutlar
Basınç 1014
Değiştir -
Ham LGIO 101250Z AUTO 25004KT 200V350 //// // ////// 32/11 Q1014 RE//

28°C / 13°C

[Daha fazla]
Rüzgar variable 2kt
Görünürlük
Hava -
Bulutlar
Basınç 1015
Değiştir -
Ham LGIO 101220Z AUTO VRB02KT //// // ////// 28/13 Q1015 RE//

VFR

26°C / 16°C

[Daha fazla]
Rüzgar 320º 2kt
Görünürlük >10km
Hava -
Bulutlar Broken Clouds 4500ft
Basınç 1015
Değiştir -
Ham LGIO 101150Z 32002KT 9999 BKN045 26/16 Q1015

VFR

28°C / 13°C

[Daha fazla]
Rüzgar 330º variable 290º to 010º 5kt
Görünürlük >10km
Hava Light Rain 1.00mm precipitation
Bulutlar Vertical Visibility of 0ft.
Basınç 1015
Değiştir -
Ham LGIO 101120Z 33005KT 290V010 9999 -RA BKN045 28/13 Q1015

VFR

29°C / 11°C

[Daha fazla]
Rüzgar 310º 6kt
Görünürlük >10km
Hava -
Bulutlar Broken Clouds 4500ft
Basınç 1015
Değiştir -
Ham LGIO 101050Z 31006KT 9999 BKN045 29/11 Q1015

VFR

29°C / 11°C

[Daha fazla]
Rüzgar 10º 3kt
Görünürlük >10km
Hava -
Bulutlar Scattered Clouds 4500ft
Basınç 1015
Değiştir -
Ham LGIO 101020Z 01003KT 9999 SCT045 29/11 Q1015

VFR

33°C / 11°C

[Daha fazla]
Rüzgar 80º variable 080º to 170º 4kt
Görünürlük >10km
Hava -
Bulutlar Scattered Clouds 4500ft
Basınç 1015
Değiştir -
Ham LGIO 100950Z 08004KT 080V170 9999 SCT045 33/11 Q1015

VFR

32°C / 11°C

[Daha fazla]
Rüzgar 210º 3kt
Görünürlük >10km
Hava -
Bulutlar Few Clouds 5000ft
Basınç 1015
Değiştir -
Ham LGIO 100920Z 21003KT 9999 FEW050 32/11 Q1015

VFR

29°C / 13°C

[Daha fazla]
Rüzgar 280º 3kt
Görünürlük >10km
Hava -
Bulutlar Few Clouds 5000ft
Basınç 1015
Değiştir -
Ham LGIO 100850Z 28003KT 9999 FEW050 29/13 Q1015

VFR

28°C / 14°C

[Daha fazla]
Rüzgar 40º variable 270º to 040º 5kt
Görünürlük >10km
Hava -
Bulutlar Few Clouds 5000ft
Basınç 1016
Değiştir -
Ham LGIO 100820Z 04005KT 270V040 9999 FEW050 28/14 Q1016

VFR

27°C / 13°C

[Daha fazla]
Rüzgar 20º variable 340º to 050º 4kt
Görünürlük >10km
Hava -
Bulutlar Few Clouds 5000ft
Basınç 1016
Değiştir -
Ham LGIO 100750Z 02004KT 340V050 9999 FEW050 27/13 Q1016

VFR

26°C / 12°C

[Daha fazla]
Rüzgar 300º 3kt
Görünürlük >10km
Hava -
Bulutlar Few Clouds 4500ft
Basınç 1016
Değiştir -
Ham LGIO 100720Z 30003KT 9999 FEW045 26/12 Q1016

VFR

23°C / 13°C

[Daha fazla]
Rüzgar 10º 2kt
Görünürlük >10km
Hava -
Bulutlar Scattered Clouds 4500ft
Basınç 1016
Değiştir -
Ham LGIO 100650Z 01002KT 9999 SCT045 23/13 Q1016

VFR

20°C / 13°C

[Daha fazla]
Rüzgar 340º 2kt
Görünürlük >10km
Hava -
Bulutlar Broken Clouds 4500ft
Basınç 1016
Değiştir -
Ham LGIO 100620Z 34002KT 9999 BKN045 20/13 Q1016

Yanya (LGIO) için TAF

From till


From till Wind variable 3kt. Visibility 10km or more. Few Clouds 2500ft.

Ham: TAF LGIO 101700Z 1018/1103 VRB03KT 9999 FEW025

Yanya için radar ve yağış nowcast

Çise
Hafif
Orta
Ağır
Çok ağır
Dolu

Konum işaretleyicisi Yanya üzerine yerleştirilir. Bu animasyon son saat içerisindeki yağış radarını ve 1h tahminini gösterir. Hafif yağmur veya kar yağışı radar için görünmez olabilir. Yağış şiddeti açık mavi ile koyu mor arasındaki renklerle kodlanmıştır.

Yanya için şu anki uydu ve yağmur görüntüleri, Yunanistan

Konum işaretleyici Yanya üzerine yerleştirilir. [Daha fazla]

Gerçek zamanlı uydu görüntüsü gündüz süresince görülür ışığı gece süresince kızılötesi ışınım ile birleştirir. Gece kızılötesi ışınım sıcaklık farklarını algılayabildiğinden dolayı görüntü karanlık değildir. Ancak düşük bulutları ve sisi yer sıcaklığından ayırmak zordur ve bu nedenle gece boyunca neredeyse görünmez olabilirler. Avrupa için Meteosat uydu görüntüleri gerçek zamanlı olarak her 5 dakikada bir güncellenir. GOES-16/GOES-17 (Kuzey ve Güney Amerika) ve Himawari (Asya) görüntüleri her 10 dakikada bir güncellenir.

Yağış radar ve uydudan tahmin edilir. Uydulardan gece yapılan yağış tahminleri gündüz yapılan tahminlere göre daha az kusursuzdur. Turuncu çarpılar şimşeklerin saptandığı yerleri gösterir (Avrupa üzeri).

Copyright 2022 EUMETSAT / meteoblue. nowcast tarafından sağlanan şimşek verileri.

En başa git